Time;durP1;ratioP1;P1;durP2;ratioP2;P2;SDS_P1;SDS_P2;PMS_P1;PMS_P2;Temp;Humidity;BMP_temperature;BMP_pressure;BME280_temperature;BME280_humidity;BME280_pressure;Samples;Min_cycle;Max_cycle;Signal;HPM_P1;HPM_P2
2023/04/14 00:01:35;;;;;;;2.05;0.90;;;;;;;;;;6179548;23;20546;-90
2023/04/14 00:04:40;;;;;;;0.60;0.60;;;;;;;;;;6178871;23;20603;-92
2023/04/14 00:07:45;;;;;;;0.70;0.70;;;;;;;;;;6178109;23;20168;-91
2023/04/14 00:10:50;;;;;;;0.52;0.52;;;;;;;;;;6179192;23;20147;-91
2023/04/14 00:13:57;;;;;;;0.47;0.47;;;;;;;;;;6180284;23;20168;-91
2023/04/14 00:17:05;;;;;;;0.57;0.57;;;;;;;;;;6180997;23;20258;-91
2023/04/14 00:20:11;;;;;;;0.55;0.55;;;;;;;;;;6179834;23;20164;-90
2023/04/14 00:23:19;;;;;;;0.55;0.55;;;;;;;;;;6178681;23;20255;-90
2023/04/14 00:26:25;;;;;;;1.33;0.70;;;;;;;;;;6179496;23;20175;-91
2023/04/14 00:29:32;;;;;;;0.40;0.40;;;;;;;;;;6182085;23;20432;-91
2023/04/14 00:32:37;;;;;;;0.90;0.87;;;;;;;;;;6181569;23;20270;-90
2023/04/14 00:35:42;;;;;;;2.73;0.90;;;;;;;;;;6180020;23;20163;-90
2023/04/14 00:38:47;;;;;;;0.50;0.50;;;;;;;;;;6179096;23;20155;-91
2023/04/14 00:41:52;;;;;;;1.52;1.00;;;;;;;;;;6179538;23;20173;-89
2023/04/14 00:44:59;;;;;;;0.33;0.33;;;;;;;;;;6179568;23;20171;-90
2023/04/14 00:48:21;;;;;;;1.00;0.70;;;;;;;;;;6179220;23;20498;-91
2023/04/14 00:51:27;;;;;;;0.40;0.40;;;;;;;;;;6180464;23;20211;-88
2023/04/14 00:54:33;;;;;;;6.53;0.90;;;;;;;;;;6179805;23;20654;-88
2023/04/14 00:57:39;;;;;;;0.40;0.40;;;;;;;;;;6180987;23;20152;-90
2023/04/14 01:00:52;;;;;;;10.67;2.00;;;;;;;;;;6180984;23;20176;-91
2023/04/14 01:03:58;;;;;;;1.08;0.85;;;;;;;;;;6181957;23;20163;-89
2023/04/14 01:07:03;;;;;;;2.13;0.87;;;;;;;;;;6180351;23;20167;-88
2023/04/14 01:10:08;;;;;;;0.63;0.63;;;;;;;;;;6178486;23;20172;-89
2023/04/14 01:13:20;;;;;;;1.43;0.70;;;;;;;;;;6180751;23;20202;-90
2023/04/14 01:16:29;;;;;;;1.07;0.70;;;;;;;;;;6180290;23;20164;-90
2023/04/14 01:19:41;;;;;;;0.70;0.70;;;;;;;;;;6179950;23;20175;-92
2023/04/14 01:27:08;;;;;;;0.40;0.40;;;;;;;;;;6196347;23;20159;-91
2023/04/14 01:30:22;;;;;;;0.30;0.30;;;;;;;;;;6180179;23;20163;-90
2023/04/14 01:33:31;;;;;;;0.75;0.75;;;;;;;;;;6179541;23;20168;-91
2023/04/14 01:36:41;;;;;;;0.40;0.40;;;;;;;;;;6180247;23;20209;-91
2023/04/14 01:39:48;;;;;;;0.40;0.40;;;;;;;;;;6177897;23;20168;-91
2023/04/14 01:42:58;;;;;;;0.40;0.40;;;;;;;;;;6179597;23;20168;-91
2023/04/14 01:46:05;;;;;;;0.73;0.70;;;;;;;;;;6177398;23;20171;-90
2023/04/14 01:49:13;;;;;;;0.83;0.77;;;;;;;;;;6177547;23;20288;-92
2023/04/14 01:52:19;;;;;;;0.70;0.60;;;;;;;;;;6178631;23;20198;-91
2023/04/14 01:55:24;;;;;;;0.30;0.30;;;;;;;;;;6180245;23;20172;-91
2023/04/14 01:58:31;;;;;;;0.30;0.30;;;;;;;;;;6181356;23;20215;-91
2023/04/14 02:01:35;;;;;;;0.40;0.40;;;;;;;;;;6181305;23;20168;-91
2023/04/14 02:04:43;;;;;;;1.57;0.53;;;;;;;;;;6179851;23;20151;-91
2023/04/14 02:07:48;;;;;;;0.30;0.30;;;;;;;;;;6180813;23;20148;-92
2023/04/14 02:10:54;;;;;;;0.30;0.30;;;;;;;;;;6181280;23;20167;-93
2023/04/14 02:14:00;;;;;;;0.43;0.43;;;;;;;;;;6181185;23;20172;-91
2023/04/14 02:17:11;;;;;;;0.30;0.30;;;;;;;;;;6180985;23;20172;-91
2023/04/14 02:20:17;;;;;;;0.40;0.40;;;;;;;;;;6181230;23;20155;-91
2023/04/14 02:26:57;;;;;;;0.40;0.40;;;;;;;;;;6182077;23;20176;-91
2023/04/14 02:30:07;;;;;;;0.87;0.67;;;;;;;;;;6181853;23;20172;-91
2023/04/14 02:33:16;;;;;;;0.30;0.30;;;;;;;;;;6180578;23;20266;-92
2023/04/14 02:36:26;;;;;;;0.70;0.70;;;;;;;;;;6182235;23;20160;-91
2023/04/14 02:39:34;;;;;;;0.30;0.30;;;;;;;;;;6182039;23;20225;-91
2023/04/14 02:42:41;;;;;;;0.50;0.50;;;;;;;;;;6181932;23;20615;-91
2023/04/14 02:45:49;;;;;;;0.70;0.70;;;;;;;;;;6181522;23;20160;-91
2023/04/14 02:48:55;;;;;;;0.37;0.37;;;;;;;;;;6179723;23;20152;-92
2023/04/14 02:52:03;;;;;;;0.60;0.60;;;;;;;;;;6181583;23;20215;-91
2023/04/14 02:55:10;;;;;;;0.57;0.50;;;;;;;;;;6181677;23;20163;-92
2023/04/14 02:58:15;;;;;;;0.37;0.37;;;;;;;;;;6180852;23;20171;-91
2023/04/14 03:01:22;;;;;;;0.40;0.40;;;;;;;;;;6181815;23;20240;-92
2023/04/14 03:04:30;;;;;;;0.30;0.30;;;;;;;;;;6180821;23;20220;-91
2023/04/14 03:07:38;;;;;;;0.47;0.47;;;;;;;;;;6181402;23;20151;-91
2023/04/14 03:10:44;;;;;;;0.50;0.50;;;;;;;;;;6182636;23;20167;-92
2023/04/14 03:13:52;;;;;;;0.87;0.80;;;;;;;;;;6181456;23;20175;-92
2023/04/14 03:16:57;;;;;;;0.50;0.50;;;;;;;;;;6180641;23;20172;-90
2023/04/14 03:20:03;;;;;;;2.10;0.70;;;;;;;;;;6179988;23;20171;-91
2023/04/14 03:23:35;;;;;;;0.60;0.60;;;;;;;;;;6181053;23;20156;-91
2023/04/14 03:26:46;;;;;;;0.77;0.77;;;;;;;;;;6181928;23;20167;-93
2023/04/14 03:29:52;;;;;;;1.60;0.73;;;;;;;;;;6181405;23;20172;-92
2023/04/14 03:32:59;;;;;;;0.50;0.50;;;;;;;;;;6180124;23;20195;-91
2023/04/14 03:36:05;;;;;;;0.80;0.80;;;;;;;;;;6182258;23;20155;-91
2023/04/14 03:39:13;;;;;;;2.87;0.90;;;;;;;;;;6181709;23;20168;-91
2023/04/14 03:42:20;;;;;;;4.37;1.20;;;;;;;;;;6181820;23;20199;-93
2023/04/14 03:45:25;;;;;;;0.53;0.50;;;;;;;;;;6182104;23;20220;-91
2023/04/14 03:48:33;;;;;;;0.60;0.60;;;;;;;;;;6181583;23;20217;-92
2023/04/14 03:51:39;;;;;;;0.60;0.60;;;;;;;;;;6182358;23;20211;-92
2023/04/14 03:54:46;;;;;;;2.63;0.97;;;;;;;;;;6181845;23;20229;-93
2023/04/14 03:57:53;;;;;;;0.50;0.50;;;;;;;;;;6181431;23;20618;-93
2023/04/14 04:01:00;;;;;;;1.13;1.03;;;;;;;;;;6182247;23;20175;-92
2023/04/14 04:04:06;;;;;;;0.60;0.60;;;;;;;;;;6181125;23;20176;-92
2023/04/14 04:07:13;;;;;;;0.40;0.40;;;;;;;;;;6182928;23;20205;-91
2023/04/14 04:10:20;;;;;;;1.03;0.83;;;;;;;;;;6183443;23;20490;-91
2023/04/14 04:13:27;;;;;;;0.47;0.47;;;;;;;;;;6182811;23;20210;-92
2023/04/14 04:16:35;;;;;;;0.40;0.40;;;;;;;;;;6180658;23;20227;-91
2023/04/14 04:19:40;;;;;;;0.43;0.43;;;;;;;;;;6179659;23;20172;-91
2023/04/14 04:22:57;;;;;;;0.80;0.80;;;;;;;;;;6180071;23;20258;-91
2023/04/14 04:26:02;;;;;;;0.40;0.40;;;;;;;;;;6180907;23;20715;-91
2023/04/14 04:29:15;;;;;;;0.53;0.53;;;;;;;;;;6179837;23;20168;-91
2023/04/14 04:32:20;;;;;;;0.60;0.60;;;;;;;;;;6180900;23;20195;-88
2023/04/14 04:35:27;;;;;;;1.23;0.73;;;;;;;;;;6179674;23;20233;-92
2023/04/14 04:38:32;;;;;;;0.50;0.50;;;;;;;;;;6182190;23;20148;-91
2023/04/14 04:41:37;;;;;;;0.80;0.80;;;;;;;;;;6181512;23;20229;-91
2023/04/14 04:44:45;;;;;;;0.70;0.70;;;;;;;;;;6182236;23;20167;-91
2023/04/14 04:47:50;;;;;;;1.80;1.13;;;;;;;;;;6181496;23;20215;-90
2023/04/14 04:50:55;;;;;;;0.70;0.70;;;;;;;;;;6181345;23;20230;-91
2023/04/14 04:54:00;;;;;;;0.93;0.70;;;;;;;;;;6180310;23;20207;-89
2023/04/14 04:57:05;;;;;;;0.50;0.50;;;;;;;;;;6182851;23;20172;-91
2023/04/14 05:00:12;;;;;;;0.77;0.77;;;;;;;;;;6180922;23;20164;-91
2023/04/14 05:03:18;;;;;;;0.53;0.53;;;;;;;;;;6180800;23;20172;-90
2023/04/14 05:06:23;;;;;;;0.40;0.40;;;;;;;;;;6181623;23;20179;-91
2023/04/14 05:09:28;;;;;;;2.67;1.90;;;;;;;;;;6181056;23;20148;-90
2023/04/14 05:12:34;;;;;;;0.80;0.80;;;;;;;;;;6181937;23;20240;-91
2023/04/14 05:16:06;;;;;;;0.73;0.70;;;;;;;;;;6182599;23;20231;-91
2023/04/14 05:19:13;;;;;;;0.83;0.83;;;;;;;;;;6181694;23;20168;-91
2023/04/14 05:22:38;;;;;;;2.13;1.10;;;;;;;;;;6180993;23;20167;-91
2023/04/14 05:25:43;;;;;;;2.37;1.27;;;;;;;;;;6183999;23;20211;-92
2023/04/14 05:28:48;;;;;;;21.07;0.87;;;;;;;;;;6185050;23;20184;-90
2023/04/14 05:31:53;;;;;;;0.70;0.67;;;;;;;;;;6183057;23;20259;-90
2023/04/14 05:35:01;;;;;;;0.80;0.80;;;;;;;;;;6182737;23;20731;-90
2023/04/14 05:38:06;;;;;;;0.60;0.60;;;;;;;;;;6182954;23;20179;-90
2023/04/14 05:41:12;;;;;;;0.60;0.60;;;;;;;;;;6184138;23;20256;-91
2023/04/14 05:44:22;;;;;;;0.60;0.60;;;;;;;;;;6183921;23;20622;-90
2023/04/14 05:47:40;;;;;;;1.63;1.10;;;;;;;;;;6183836;23;20232;-89
2023/04/14 05:50:47;;;;;;;0.77;0.77;;;;;;;;;;6183061;23;20191;-90
2023/04/14 05:53:52;;;;;;;0.47;0.47;;;;;;;;;;6183604;23;20179;-91
2023/04/14 05:56:57;;;;;;;0.30;0.30;;;;;;;;;;6183557;23;20171;-93
2023/04/14 06:00:02;;;;;;;0.40;0.40;;;;;;;;;;6182405;23;20183;-92
2023/04/14 06:03:18;;;;;;;0.40;0.40;;;;;;;;;;6201005;23;20216;-93
2023/04/14 06:09:45;;;;;;;0.50;0.50;;;;;;;;;;6183798;23;20179;-91
2023/04/14 06:12:50;;;;;;;0.60;0.60;;;;;;;;;;6182263;23;20232;-92
2023/04/14 06:15:57;;;;;;;0.80;0.73;;;;;;;;;;6182039;23;20168;-91
2023/04/14 06:19:02;;;;;;;0.57;0.57;;;;;;;;;;6181657;23;20254;-92
2023/04/14 06:25:58;;;;;;;0.50;0.50;;;;;;;;;;6183860;23;20180;-92
2023/04/14 06:29:06;;;;;;;0.93;0.70;;;;;;;;;;6184636;23;20227;-91
2023/04/14 06:32:11;;;;;;;0.30;0.30;;;;;;;;;;6183428;23;20164;-91
2023/04/14 06:35:17;;;;;;;0.40;0.40;;;;;;;;;;6183437;23;20172;-91
2023/04/14 06:38:23;;;;;;;0.40;0.40;;;;;;;;;;6184602;23;20256;-91
2023/04/14 06:41:34;;;;;;;0.50;0.50;;;;;;;;;;6182175;23;20188;-91
2023/04/14 06:44:42;;;;;;;0.60;0.60;;;;;;;;;;6181592;23;20226;-92
2023/04/14 06:47:53;;;;;;;0.43;0.43;;;;;;;;;;6181676;23;20168;-91
2023/04/14 06:50:59;;;;;;;0.43;0.43;;;;;;;;;;6169984;23;20172;-91
2023/04/14 06:54:05;;;;;;;0.83;0.83;;;;;;;;;;6169931;23;20195;-91
2023/04/14 06:57:12;;;;;;;1.13;0.70;;;;;;;;;;6171197;23;20169;-91
2023/04/14 07:00:18;;;;;;;0.40;0.40;;;;;;;;;;6171160;23;20169;-90
2023/04/14 07:03:23;;;;;;;0.30;0.30;;;;;;;;;;6175722;23;20168;-90
2023/04/14 07:06:28;;;;;;;0.40;0.40;;;;;;;;;;6174416;23;20234;-92
2023/04/14 07:09:44;;;;;;;0.30;0.30;;;;;;;;;;6174211;23;20288;-89
2023/04/14 07:12:51;;;;;;;0.53;0.50;;;;;;;;;;6173261;23;20267;-92
2023/04/14 07:15:57;;;;;;;0.50;0.50;;;;;;;;;;6172574;23;20174;-91
2023/04/14 07:19:04;;;;;;;0.53;0.53;;;;;;;;;;6171654;23;20261;-91
2023/04/14 07:22:34;;;;;;;0.60;0.60;;;;;;;;;;6173164;23;20205;-91
2023/04/14 07:25:41;;;;;;;0.50;0.50;;;;;;;;;;6171602;23;20172;-90
2023/04/14 07:28:48;;;;;;;0.67;0.50;;;;;;;;;;6175677;23;20152;-92
2023/04/14 07:31:53;;;;;;;4.20;0.50;;;;;;;;;;6172088;23;20173;-93
2023/04/14 07:38:19;;;;;;;0.53;0.53;;;;;;;;;;6173269;23;20169;-90
2023/04/14 07:41:25;;;;;;;0.40;0.40;;;;;;;;;;6168345;23;20164;-92
2023/04/14 07:44:32;;;;;;;1.47;1.13;;;;;;;;;;6168640;23;20160;-91
2023/04/14 07:47:42;;;;;;;0.30;0.30;;;;;;;;;;6168340;23;20177;-92
2023/04/14 07:50:48;;;;;;;0.30;0.30;;;;;;;;;;6179963;23;20180;-91
2023/04/14 07:53:54;;;;;;;0.90;0.67;;;;;;;;;;6183717;23;20212;-91
2023/04/14 07:57:00;;;;;;;0.40;0.40;;;;;;;;;;6184541;23;20188;-90
2023/04/14 08:00:08;;;;;;;1.87;0.97;;;;;;;;;;6183026;23;20233;-90
2023/04/14 08:03:19;;;;;;;0.60;0.60;;;;;;;;;;6180939;23;20247;-91
2023/04/14 08:06:26;;;;;;;0.63;0.63;;;;;;;;;;6185022;23;20213;-90
2023/04/14 08:09:32;;;;;;;0.40;0.40;;;;;;;;;;6182502;23;20168;-93
2023/04/14 08:12:37;;;;;;;0.40;0.40;;;;;;;;;;6182487;23;20175;-90
2023/04/14 08:15:44;;;;;;;0.50;0.50;;;;;;;;;;6184727;23;20225;-92
2023/04/14 08:18:49;;;;;;;0.40;0.40;;;;;;;;;;6181181;23;20207;-91
2023/04/14 08:22:00;;;;;;;1.07;1.03;;;;;;;;;;6180622;23;20163;-90
2023/04/14 08:25:05;;;;;;;0.70;0.70;;;;;;;;;;6182247;23;20239;-92
2023/04/14 08:28:11;;;;;;;0.40;0.40;;;;;;;;;;6180719;23;20163;-89
2023/04/14 08:31:17;;;;;;;0.50;0.50;;;;;;;;;;6181628;23;20168;-93
2023/04/14 08:34:22;;;;;;;2.57;0.70;;;;;;;;;;6180149;23;20255;-89
2023/04/14 08:37:28;;;;;;;0.43;0.43;;;;;;;;;;6178498;23;20228;-90
2023/04/14 08:40:35;;;;;;;0.47;0.47;;;;;;;;;;6181587;23;20167;-89
2023/04/14 08:43:40;;;;;;;0.63;0.63;;;;;;;;;;6181565;23;20247;-90
2023/04/14 08:46:49;;;;;;;0.47;0.47;;;;;;;;;;6179472;23;20215;-92
2023/04/14 08:49:58;;;;;;;0.40;0.40;;;;;;;;;;6180214;23;20192;-91
2023/04/14 08:53:04;;;;;;;0.43;0.43;;;;;;;;;;6181859;23;20164;-91
2023/04/14 08:56:10;;;;;;;0.57;0.40;;;;;;;;;;6179642;23;20243;-92
2023/04/14 08:59:14;;;;;;;0.90;0.80;;;;;;;;;;6186604;23;20280;-90
2023/04/14 09:02:21;;;;;;;0.73;0.70;;;;;;;;;;6186720;23;20171;-92
2023/04/14 09:05:26;;;;;;;1.43;0.70;;;;;;;;;;6183761;23;20171;-90
2023/04/14 09:08:41;;;;;;;0.50;0.50;;;;;;;;;;6179844;23;20164;-93
2023/04/14 09:11:47;;;;;;;0.43;0.43;;;;;;;;;;6180902;23;20255;-91
2023/04/14 09:14:53;;;;;;;0.47;0.47;;;;;;;;;;6179664;23;20311;-91
2023/04/14 09:17:59;;;;;;;0.60;0.60;;;;;;;;;;6197013;23;20614;-91
2023/04/14 09:21:05;;;;;;;1.13;0.67;;;;;;;;;;6181731;23;20192;-91
2023/04/14 09:24:11;;;;;;;0.60;0.60;;;;;;;;;;6179172;23;20223;-90
2023/04/14 09:27:16;;;;;;;0.63;0.63;;;;;;;;;;6180835;23;20197;-90
2023/04/14 09:30:22;;;;;;;0.47;0.47;;;;;;;;;;6179215;23;20452;-90
2023/04/14 09:33:28;;;;;;;0.73;0.60;;;;;;;;;;6178859;23;20211;-91
2023/04/14 09:36:33;;;;;;;0.60;0.60;;;;;;;;;;6179759;23;20168;-92
2023/04/14 09:39:48;;;;;;;0.50;0.50;;;;;;;;;;6179153;23;20243;-89
2023/04/14 09:42:53;;;;;;;0.60;0.60;;;;;;;;;;6180529;23;20151;-91
2023/04/14 09:46:05;;;;;;;0.82;0.82;;;;;;;;;;6183612;23;20211;-90
2023/04/14 09:49:12;;;;;;;0.60;0.60;;;;;;;;;;6180572;23;20168;-89
2023/04/14 09:52:17;;;;;;;0.70;0.70;;;;;;;;;;6180619;23;20520;-91
2023/04/14 09:55:22;;;;;;;0.50;0.50;;;;;;;;;;6177609;23;20199;-90
2023/04/14 09:58:30;;;;;;;0.65;0.65;;;;;;;;;;6177850;23;20168;-89
2023/04/14 10:01:36;;;;;;;0.52;0.52;;;;;;;;;;6179998;23;20168;-89
2023/04/14 10:04:42;;;;;;;2.43;1.17;;;;;;;;;;6180940;23;20168;-90
2023/04/14 10:07:48;;;;;;;0.45;0.45;;;;;;;;;;6179288;23;20239;-90
2023/04/14 10:10:53;;;;;;;0.50;0.50;;;;;;;;;;6178249;23;20179;-90
2023/04/14 10:13:58;;;;;;;2.83;1.40;;;;;;;;;;6178822;23;20232;-91
2023/04/14 10:17:03;;;;;;;0.30;0.30;;;;;;;;;;6182865;23;20167;-90
2023/04/14 10:20:10;;;;;;;1.92;0.77;;;;;;;;;;6181485;23;20172;-91
2023/04/14 10:23:18;;;;;;;0.40;0.40;;;;;;;;;;6180022;23;20168;-92
2023/04/14 10:26:23;;;;;;;2.72;1.08;;;;;;;;;;6184808;23;20172;-90
2023/04/14 10:29:29;;;;;;;0.43;0.43;;;;;;;;;;6181210;23;20171;-87
2023/04/14 10:32:35;;;;;;;1.17;1.10;;;;;;;;;;6187023;23;20167;-91
2023/04/14 10:35:43;;;;;;;0.95;0.70;;;;;;;;;;6189800;23;20641;-91
2023/04/14 10:38:49;;;;;;;0.43;0.43;;;;;;;;;;6190335;23;20192;-90
2023/04/14 10:41:56;;;;;;;0.50;0.50;;;;;;;;;;6189276;23;20215;-91
2023/04/14 10:45:05;;;;;;;0.40;0.40;;;;;;;;;;6190042;23;20160;-88
2023/04/14 10:48:14;;;;;;;0.70;0.70;;;;;;;;;;6170700;23;20212;-88
2023/04/14 10:51:22;;;;;;;0.40;0.40;;;;;;;;;;6187167;23;20198;-90
2023/04/14 10:54:27;;;;;;;0.50;0.50;;;;;;;;;;6187229;23;20192;-90
2023/04/14 10:57:36;;;;;;;0.73;0.70;;;;;;;;;;6189244;23;20215;-91
2023/04/14 11:00:45;;;;;;;0.57;0.57;;;;;;;;;;6187477;23;20168;-89
2023/04/14 11:03:51;;;;;;;0.50;0.50;;;;;;;;;;6187676;23;20250;-91
2023/04/14 11:06:58;;;;;;;0.80;0.80;;;;;;;;;;6186780;23;20171;-91
2023/04/14 11:10:19;;;;;;;1.17;1.10;;;;;;;;;;6187890;23;20172;-93
2023/04/14 11:13:25;;;;;;;0.40;0.40;;;;;;;;;;6181921;23;20522;-89
2023/04/14 11:16:30;;;;;;;0.50;0.50;;;;;;;;;;6182046;23;20164;-92
2023/04/14 11:19:35;;;;;;;0.50;0.50;;;;;;;;;;6185673;23;20192;-89
2023/04/14 11:22:44;;;;;;;0.60;0.60;;;;;;;;;;6183890;23;20280;-90
2023/04/14 11:25:49;;;;;;;0.82;0.82;;;;;;;;;;6184971;23;20596;-90
2023/04/14 11:28:55;;;;;;;0.50;0.50;;;;;;;;;;6183095;23;20208;-91
2023/04/14 11:32:02;;;;;;;1.02;0.77;;;;;;;;;;6184888;23;20155;-89
2023/04/14 11:35:11;;;;;;;0.50;0.50;;;;;;;;;;6183424;23;20195;-88
2023/04/14 11:38:17;;;;;;;0.65;0.65;;;;;;;;;;6184551;23;20176;-91
2023/04/14 11:41:23;;;;;;;0.98;0.98;;;;;;;;;;6183504;23;20602;-89
2023/04/14 11:44:29;;;;;;;1.95;0.60;;;;;;;;;;6182551;23;20171;-91
2023/04/14 11:47:35;;;;;;;0.70;0.60;;;;;;;;;;6180665;23;20192;-89
2023/04/14 11:50:42;;;;;;;1.88;0.73;;;;;;;;;;6181508;23;20192;-87
2023/04/14 11:53:49;;;;;;;0.60;0.60;;;;;;;;;;6185266;23;20159;-89
2023/04/14 11:56:54;;;;;;;1.98;0.77;;;;;;;;;;6184436;23;20207;-89
2023/04/14 11:59:59;;;;;;;1.40;0.70;;;;;;;;;;6183276;23;20192;-87
2023/04/14 12:03:05;;;;;;;0.80;0.75;;;;;;;;;;6183230;23;20171;-89
2023/04/14 12:06:10;;;;;;;0.52;0.52;;;;;;;;;;6185829;23;20160;-90
2023/04/14 12:09:17;;;;;;;3.65;1.80;;;;;;;;;;6187516;23;20251;-90
2023/04/14 12:12:22;;;;;;;5.97;1.27;;;;;;;;;;6186258;23;20497;-90
2023/04/14 12:15:30;;;;;;;0.40;0.40;;;;;;;;;;6186474;23;20219;-89
2023/04/14 12:18:36;;;;;;;1.42;1.02;;;;;;;;;;6185791;23;20208;-89
2023/04/14 12:21:52;;;;;;;0.93;0.80;;;;;;;;;;6184800;23;20163;-88
2023/04/14 12:24:58;;;;;;;0.57;0.57;;;;;;;;;;6184631;23;20553;-89
2023/04/14 12:28:05;;;;;;;0.77;0.77;;;;;;;;;;6188255;23;20191;-90
2023/04/14 12:31:11;;;;;;;4.78;1.08;;;;;;;;;;6185399;23;20175;-90
2023/04/14 12:34:18;;;;;;;0.60;0.60;;;;;;;;;;6191082;23;20180;-89
2023/04/14 12:37:26;;;;;;;0.68;0.68;;;;;;;;;;6166468;23;20152;-89
2023/04/14 12:40:41;;;;;;;1.13;1.02;;;;;;;;;;6180192;23;20168;-91
2023/04/14 12:43:47;;;;;;;0.75;0.75;;;;;;;;;;6182474;23;20288;-91
2023/04/14 12:47:15;;;;;;;1.23;1.13;;;;;;;;;;6180906;23;20167;-89
2023/04/14 12:50:24;;;;;;;0.55;0.45;;;;;;;;;;6185339;23;20203;-90
2023/04/14 12:53:31;;;;;;;1.88;1.40;;;;;;;;;;6185541;23;20172;-90
2023/04/14 12:56:42;;;;;;;0.52;0.52;;;;;;;;;;6184770;23;20200;-90
2023/04/14 12:59:49;;;;;;;0.30;0.30;;;;;;;;;;6183647;23;20164;-91
2023/04/14 13:02:54;;;;;;;2.05;1.00;;;;;;;;;;6183961;23;20167;-89
2023/04/14 13:06:00;;;;;;;0.43;0.43;;;;;;;;;;6182553;23;20176;-88
2023/04/14 13:09:05;;;;;;;0.52;0.52;;;;;;;;;;6185073;23;20164;-88
2023/04/14 13:12:19;;;;;;;0.40;0.40;;;;;;;;;;6184790;23;20168;-90
2023/04/14 13:15:26;;;;;;;2.17;0.70;;;;;;;;;;6183207;23;20191;-89
2023/04/14 13:18:31;;;;;;;0.50;0.50;;;;;;;;;;6184055;23;20192;-93
2023/04/14 13:22:19;;;;;;;2.83;0.55;;;;;;;;;;6184418;23;20315;-89
2023/04/14 13:25:24;;;;;;;0.47;0.47;;;;;;;;;;6187058;23;20172;-88
2023/04/14 13:28:30;;;;;;;0.30;0.30;;;;;;;;;;6186037;23;20164;-90
2023/04/14 13:31:35;;;;;;;0.50;0.50;;;;;;;;;;6183609;23;20175;-90
2023/04/14 13:34:40;;;;;;;0.35;0.35;;;;;;;;;;6184042;23;20191;-92
2023/04/14 13:37:46;;;;;;;0.30;0.30;;;;;;;;;;6184598;23;20373;-90
2023/04/14 13:40:51;;;;;;;0.50;0.50;;;;;;;;;;6182863;23;20168;-92
2023/04/14 13:43:59;;;;;;;1.00;0.63;;;;;;;;;;6187348;23;20241;-90
2023/04/14 13:47:04;;;;;;;0.70;0.70;;;;;;;;;;6189960;23;20210;-90
2023/04/14 13:50:11;;;;;;;0.60;0.60;;;;;;;;;;6190453;23;20232;-87
2023/04/14 13:53:17;;;;;;;1.05;1.05;;;;;;;;;;6192656;23;20168;-89
2023/04/14 13:56:24;;;;;;;0.68;0.68;;;;;;;;;;6192172;23;20248;-90
2023/04/14 13:59:31;;;;;;;0.50;0.50;;;;;;;;;;6191443;23;20171;-90
2023/04/14 14:02:38;;;;;;;0.50;0.47;;;;;;;;;;6191524;23;20160;-91
2023/04/14 14:05:43;;;;;;;0.55;0.55;;;;;;;;;;6192484;23;20163;-89
2023/04/14 14:08:59;;;;;;;2.22;1.05;;;;;;;;;;6188154;23;20168;-89
2023/04/14 14:12:05;;;;;;;1.55;0.93;;;;;;;;;;6187590;23;20168;-91
2023/04/14 14:18:45;;;;;;;0.70;0.70;;;;;;;;;;6183794;23;20179;-89
2023/04/14 14:21:52;;;;;;;0.73;0.73;;;;;;;;;;6186199;23;20176;-88
2023/04/14 14:24:58;;;;;;;2.15;1.00;;;;;;;;;;6185167;23;20185;-90
2023/04/14 14:28:03;;;;;;;0.85;0.85;;;;;;;;;;6186688;23;20235;-91
2023/04/14 14:31:09;;;;;;;0.40;0.40;;;;;;;;;;6188482;23;20168;-89
2023/04/14 14:34:19;;;;;;;0.52;0.52;;;;;;;;;;6186705;23;20550;-89
2023/04/14 14:37:24;;;;;;;0.70;0.70;;;;;;;;;;6186563;23;20167;-90
2023/04/14 14:40:29;;;;;;;0.75;0.75;;;;;;;;;;6186810;23;20172;-90
2023/04/14 14:43:35;;;;;;;0.52;0.52;;;;;;;;;;6186933;23;20171;-90
2023/04/14 14:46:59;;;;;;;0.50;0.50;;;;;;;;;;6184654;23;20905;-90
2023/04/14 14:50:07;;;;;;;0.60;0.60;;;;;;;;;;6184103;23;20215;-90
2023/04/14 14:53:12;;;;;;;0.85;0.85;;;;;;;;;;6184757;23;20172;-91
2023/04/14 14:56:18;;;;;;;0.50;0.50;;;;;;;;;;6185817;23;20199;-91
2023/04/14 14:59:24;;;;;;;0.45;0.45;;;;;;;;;;6185629;23;20232;-91
2023/04/14 15:02:30;;;;;;;0.65;0.55;;;;;;;;;;6184671;23;20167;-88
2023/04/14 15:05:38;;;;;;;2.03;0.90;;;;;;;;;;6184524;23;20160;-89
2023/04/14 15:08:43;;;;;;;1.83;1.10;;;;;;;;;;6185329;23;20287;-90
2023/04/14 15:11:48;;;;;;;0.50;0.50;;;;;;;;;;6185006;23;20666;-92
2023/04/14 15:14:54;;;;;;;0.85;0.82;;;;;;;;;;6186715;23;20211;-91
2023/04/14 15:17:59;;;;;;;0.40;0.40;;;;;;;;;;6184541;23;20231;-91
2023/04/14 15:21:07;;;;;;;0.45;0.45;;;;;;;;;;6184689;23;20171;-90
2023/04/14 15:24:12;;;;;;;0.60;0.60;;;;;;;;;;6185496;23;20167;-89
2023/04/14 15:27:17;;;;;;;0.60;0.60;;;;;;;;;;6186817;23;20213;-89
2023/04/14 15:30:22;;;;;;;2.50;0.95;;;;;;;;;;6184779;23;20213;-89
2023/04/14 15:33:28;;;;;;;0.45;0.45;;;;;;;;;;6184315;23;20172;-90
2023/04/14 15:36:35;;;;;;;0.38;0.38;;;;;;;;;;6185749;23;20232;-90
2023/04/14 15:39:40;;;;;;;0.70;0.70;;;;;;;;;;6186683;23;20171;-89
2023/04/14 15:42:45;;;;;;;0.57;0.57;;;;;;;;;;6185810;23;20215;-91
2023/04/14 15:45:50;;;;;;;0.57;0.57;;;;;;;;;;6186143;23;20244;-90
2023/04/14 15:49:01;;;;;;;0.98;0.95;;;;;;;;;;6184576;23;20241;-93
2023/04/14 15:52:13;;;;;;;1.05;0.95;;;;;;;;;;6170979;23;20171;-91
2023/04/14 15:55:18;;;;;;;0.90;0.60;;;;;;;;;;6173373;23;20249;-91
2023/04/14 15:58:23;;;;;;;2.90;0.77;;;;;;;;;;6174091;23;20198;-92
2023/04/14 16:01:29;;;;;;;0.55;0.55;;;;;;;;;;6173385;23;20184;-92
2023/04/14 16:04:35;;;;;;;0.38;0.38;;;;;;;;;;6169938;23;20175;-90
2023/04/14 16:07:42;;;;;;;0.60;0.60;;;;;;;;;;6169494;23;20201;-89
2023/04/14 16:10:47;;;;;;;1.55;0.98;;;;;;;;;;6171164;23;20333;-89
